Arcadia Highway — 3FQT4 — position and weather

sailwx.info

Track history (hours):
 
Tides and Currents Weather Stations Pressure Air Temp Water Temp Dewpoint Dewpoint Depression Visibility Wind Speed Wind Dir Waves Ship Positions

Arcadia Highway

Last reported at 2015-Mar-05 21:22 UTC. Time now 2015-Mar-06 00:04 UTC.
Position N 23°00' E 113°32'.

Length 179 m; draft 7.8 m.

Type: Cargo ship. MMSI: 354342000.

Date/timePositionNaut miles runAvg speedWind from/ knotsBaromVisibWave heightAir tempDewpointWater temp
2015-Mar-05 21:22N 23°00' E 113°32'1 0.0
2015-Mar-04 15:28N 23°01' E 113°31'5511.1
2015-Mar-04 10:33N 22°09' E 113°48'33 6.6
2015-Mar-04 05:32N 22°09' E 114°24'  
2015-Feb-28 11:25N 35°01' E 139°40'1315.0
2015-Feb-28 10:33N 35°13' E 139°46'1312.5
2015-Feb-28 09:33N 35°25' E 139°42'3 2.5
2015-Feb-28 08:29N 35°27' E 139°41'0 0.0
2015-Feb-28 07:29N 35°27' E 139°41'0 0.0
2015-Feb-28 06:29N 35°27' E 139°41'0 0.0
2015-Feb-28 05:29N 35°27' E 139°41'0 0.0
2015-Feb-28 04:29N 35°27' E 139°41'0 0.0
2015-Feb-28 03:29N 35°27' E 139°41'0 0.0
2015-Feb-28 02:23N 35°27' E 139°41'0 0.0
2015-Feb-28 01:29N 35°27' E 139°41'0 0.0
2015-Feb-28 00:29N 35°27' E 139°41'0 0.0
2015-Feb-27 23:29N 35°27' E 139°41'0 0.0
2015-Feb-27 22:29N 35°27' E 139°41'1 1.4
2015-Feb-27 21:33N 35°26' E 139°42'10 9.8
2015-Feb-27 20:33N 35°17' E 139°46'10 9.5
2015-Feb-27 19:33N 35°07' E 139°46'8 7.3
2015-Feb-27 18:30N 35°00' E 139°42'  
Track history (hours):
 
Tides and Currents Weather Stations Pressure Air Temp Water Temp Dewpoint Dewpoint Depression Visibility Wind Speed Wind Dir Waves Ship Positions

Arcadia Highway

Last reported at 2015-Mar-05 21:22 UTC. Time now 2015-Mar-06 00:04 UTC.
Position N 23°00' E 113°32'.

Length 179 m; draft 7.8 m.

Type: Cargo ship. MMSI: 354342000.

Date/timePositionNaut miles runAvg speedWind from/ knotsBaromVisibWave heightAir tempDewpointWater temp
2015-Mar-05 21:22N 23°00' E 113°32'1 0.0
2015-Mar-04 15:28N 23°01' E 113°31'5511.1
2015-Mar-04 10:33N 22°09' E 113°48'33 6.6
2015-Mar-04 05:32N 22°09' E 114°24'  
2015-Feb-28 11:25N 35°01' E 139°40'1315.0
2015-Feb-28 10:33N 35°13' E 139°46'1312.5
2015-Feb-28 09:33N 35°25' E 139°42'3 2.5
2015-Feb-28 08:29N 35°27' E 139°41'0 0.0
2015-Feb-28 07:29N 35°27' E 139°41'0 0.0
2015-Feb-28 06:29N 35°27' E 139°41'0 0.0
2015-Feb-28 05:29N 35°27' E 139°41'0 0.0
2015-Feb-28 04:29N 35°27' E 139°41'0 0.0
2015-Feb-28 03:29N 35°27' E 139°41'0 0.0
2015-Feb-28 02:23N 35°27' E 139°41'0 0.0
2015-Feb-28 01:29N 35°27' E 139°41'0 0.0
2015-Feb-28 00:29N 35°27' E 139°41'0 0.0
2015-Feb-27 23:29N 35°27' E 139°41'0 0.0
2015-Feb-27 22:29N 35°27' E 139°41'1 1.4
2015-Feb-27 21:33N 35°26' E 139°42'10 9.8
2015-Feb-27 20:33N 35°17' E 139°46'10 9.5
2015-Feb-27 19:33N 35°07' E 139°46'8 7.3
2015-Feb-27 18:30N 35°00' E 139°42'  

Dump ship's entire track history